VTBU/UTP METAR and TAF weather

Enter ICAO airport designator
Station Type Date Time Source
VTBU METAR 2021/04/17 01:30 UTC NOAA

VTBU 170130Z VRB02KT 9999 FEW020 30/25 Q1013 NOSIG


Station Type Date Time Source
VTBU Decoded METAR 2021/04/17 01:30 UTC NOAA

Rayong, Thailand (VTBU) 12-38N 101-21E 5M
Apr 16, 2021 - 09:30 PM EDT / 2021.04.17 0130 UTC
Wind: Variable at 2 MPH (2 KT):0
Visibility: greater than 7 mile(s):0
Sky conditions: mostly clear
Temperature: 86 F (30 C)
Heat index: 96.8 F (36.0 C):1
Dew Point: 77 F (25 C)
Relative Humidity: 74%
Pressure (altimeter): 29.91 in. Hg (1013 hPa)
ob: VTBU 170130Z VRB02KT 9999 FEW020 30/25 Q1013 NOSIG
cycle: 1

Station Type Date Time Source
VTBU TAF 2021/04/16 18:36 UTC NOAA

TAF VTBU 161700Z 1618/1718 19006KT 9999 FEW020

Example: see airport list